Time;durP1;ratioP1;P1;durP2;ratioP2;P2;SDS_P1;SDS_P2;PMS_P1;PMS_P2;Temp;Humidity;BMP_temperature;BMP_pressure;BME280_temperature;BME280_humidity;BME280_pressure;Samples;Min_cycle;Max_cycle;Signal;HPM_P1;HPM_P2
2021/12/08 00:00:27;;;;;;;85.32;31.20;;;;;;;-1.45;92.22;97640.77;1761247;81;21018;-57
2021/12/08 00:02:55;;;;;;;91.47;33.58;;;;;;;-1.39;92.25;97641.75;1757961;81;21033;-57
2021/12/08 00:05:22;;;;;;;86.72;33.02;;;;;;;-1.38;91.89;97647.36;1751810;81;21026;-57
2021/12/08 00:07:49;;;;;;;81.67;32.90;;;;;;;-1.33;91.93;97652.87;1751301;81;22368;-57
2021/12/08 00:10:49;;;;;;;74.07;30.72;;;;;;;-1.32;91.72;97651.84;1751664;81;37813;-57
2021/12/08 00:13:05;;;;;;;93.27;28.30;;;;;;;-1.28;91.40;97659.67;1756688;81;21070;-57
2021/12/08 00:15:39;;;;;;;79.90;29.45;;;;;;;-1.29;91.50;97656.20;1758057;81;21112;-57
2021/12/08 00:18:07;;;;;;;79.80;31.33;;;;;;;-1.28;90.95;97663.17;1785626;79;21067;-58
2021/12/08 00:20:33;;;;;;;82.05;29.87;;;;;;;-1.38;91.43;97661.47;1792700;80;22097;-58
2021/12/08 00:23:01;;;;;;;83.82;30.05;;;;;;;-1.36;91.37;97665.27;1792364;80;21012;-57
2021/12/08 00:25:27;;;;;;;80.95;30.20;;;;;;;-1.37;91.32;97665.75;1792769;80;21059;-57
2021/12/08 00:27:53;;;;;;;76.57;30.05;;;;;;;-1.34;91.46;97664.53;1792338;80;21001;-57
2021/12/08 00:30:19;;;;;;;86.60;32.50;;;;;;;-1.30;91.37;97665.20;1785335;80;20964;-57
2021/12/08 00:32:45;;;;;;;90.87;36.03;;;;;;;-1.30;91.09;97667.87;1751769;81;21472;-57
2021/12/08 00:35:11;;;;;;;84.45;32.98;;;;;;;-1.27;91.08;97667.98;1751355;81;20985;-57
2021/12/08 00:37:37;;;;;;;101.45;35.17;;;;;;;-1.23;91.24;97663.33;1758688;81;21480;-57
2021/12/08 00:40:06;;;;;;;79.45;32.25;;;;;;;-1.25;90.95;97661.92;1756579;81;20865;-57
2021/12/08 00:42:32;;;;;;;74.15;31.45;;;;;;;-1.24;90.97;97664.37;1751259;81;21524;-57
2021/12/08 00:44:59;;;;;;;75.05;29.55;;;;;;;-1.22;90.86;97666.80;1756281;81;21464;-57
2021/12/08 00:47:26;;;;;;;94.65;36.58;;;;;;;-1.19;90.83;97669.06;1764851;80;21027;-57
2021/12/08 00:49:52;;;;;;;82.57;29.30;;;;;;;-1.21;91.21;97669.77;1792618;80;21013;-57
2021/12/08 00:52:18;;;;;;;81.60;33.63;;;;;;;-1.22;90.95;97676.11;1787136;80;20850;-58
2021/12/08 00:54:45;;;;;;;83.03;29.10;;;;;;;-1.23;90.62;97673.97;1738494;81;21080;-57
2021/12/08 00:57:11;;;;;;;82.80;29.37;;;;;;;-1.18;90.69;97680.81;1752095;81;21564;-57
2021/12/08 00:59:37;;;;;;;78.10;32.38;;;;;;;-1.14;90.68;97673.20;1760982;81;20919;-57
2021/12/08 01:02:04;;;;;;;62.25;26.37;;;;;;;-1.15;90.47;97663.60;1761466;81;21074;-57
2021/12/08 01:04:31;;;;;;;68.02;28.40;;;;;;;-1.12;90.54;97661.83;1761118;81;21098;-57
2021/12/08 01:06:57;;;;;;;71.75;29.20;;;;;;;-1.11;90.34;97658.66;1778168;80;21016;-57
2021/12/08 01:09:23;;;;;;;65.55;26.70;;;;;;;-1.15;90.46;97653.78;1752471;81;22369;-57
2021/12/08 01:11:49;;;;;;;74.87;29.82;;;;;;;-1.12;90.66;97652.52;1761416;81;20943;-57
2021/12/08 01:14:15;;;;;;;68.97;28.25;;;;;;;-1.14;90.38;97653.27;1778598;80;20953;-57
2021/12/08 01:16:41;;;;;;;73.60;28.30;;;;;;;-1.19;90.34;97649.93;1761448;79;20948;-57
2021/12/08 01:19:07;;;;;;;70.22;25.92;;;;;;;-1.16;90.68;97650.82;1754700;80;21491;-57
2021/12/08 01:21:33;;;;;;;81.28;28.17;;;;;;;-1.13;90.52;97645.58;1770981;80;21565;-57
2021/12/08 01:23:59;;;;;;;62.25;24.87;;;;;;;-1.09;90.56;97652.12;1779811;80;21081;-57
2021/12/08 01:26:26;;;;;;;71.37;27.13;;;;;;;-1.08;90.22;97663.56;1761299;81;21071;-57
2021/12/08 01:28:56;;;;;;;72.62;28.92;;;;;;;-1.07;90.19;97662.02;1784664;80;21083;-57
2021/12/08 01:31:20;;;;;;;79.40;29.45;;;;;;;-1.07;90.16;97659.88;1741317;81;21067;-57
2021/12/08 01:33:46;;;;;;;68.42;27.20;;;;;;;-1.09;90.07;97658.77;1751439;81;22117;-57
2021/12/08 01:36:12;;;;;;;78.12;30.57;;;;;;;-1.10;90.08;97655.81;1755820;81;20869;-57
2021/12/08 01:38:38;;;;;;;60.67;24.45;;;;;;;-1.07;90.14;97652.71;1782119;80;20968;-57
2021/12/08 01:41:04;;;;;;;67.67;25.55;;;;;;;-1.02;90.25;97656.08;1743558;80;20878;-57
2021/12/08 01:43:41;;;;;;;73.30;27.98;;;;;;;-1.03;89.86;97659.73;1751499;81;21127;-57
2021/12/08 01:46:03;;;;;;;67.90;27.37;;;;;;;-1.02;90.03;97651.56;1749647;81;22303;-57
2021/12/08 01:48:33;;;;;;;64.55;27.73;;;;;;;-1.00;90.03;97647.36;1757057;81;21007;-57
2021/12/08 01:51:04;;;;;;;62.60;26.40;;;;;;;-1.04;89.50;97640.82;1761441;81;21027;-58
2021/12/08 01:53:30;;;;;;;59.65;28.05;;;;;;;-1.06;89.73;97640.23;1777049;80;21510;-58
2021/12/08 01:55:55;;;;;;;62.10;24.07;;;;;;;-1.03;89.87;97646.44;1749051;80;20896;-57
2021/12/08 01:58:22;;;;;;;60.00;25.12;;;;;;;-1.01;89.81;97641.74;1761050;81;21577;-58
2021/12/08 02:00:55;;;;;;;52.58;22.77;;;;;;;-1.00;89.78;97626.08;1761292;81;20980;-58
2021/12/08 02:03:22;;;;;;;54.67;24.40;;;;;;;-1.01;89.73;97624.45;1759341;81;21009;-57
2021/12/08 02:05:48;;;;;;;51.92;20.17;;;;;;;-1.05;88.88;97628.04;1786194;80;20973;-57
2021/12/08 02:08:14;;;;;;;51.37;21.60;;;;;;;-1.14;87.75;97628.81;1767780;80;21061;-57
2021/12/08 02:10:41;;;;;;;55.67;25.97;;;;;;;-1.13;88.55;97629.63;1759160;81;21482;-57
2021/12/08 02:13:08;;;;;;;51.45;22.27;;;;;;;-1.15;88.84;97622.38;1756459;81;21157;-57
2021/12/08 02:15:36;;;;;;;53.17;21.65;;;;;;;-1.20;88.73;97607.09;1735479;81;21031;-57
2021/12/08 02:18:02;;;;;;;48.38;18.85;;;;;;;-1.29;88.67;97593.72;1767437;80;20997;-57
2021/12/08 02:20:28;;;;;;;47.15;19.85;;;;;;;-1.36;88.63;97586.84;1792781;80;21648;-57
2021/12/08 02:22:54;;;;;;;58.50;21.35;;;;;;;-1.42;88.70;97585.33;1792488;80;21155;-57
2021/12/08 02:25:23;;;;;;;53.00;25.48;;;;;;;-1.49;88.65;97591.71;1792774;80;21374;-57
2021/12/08 02:27:49;;;;;;;54.48;23.52;;;;;;;-1.48;88.96;97595.48;1779012;80;21025;-57
2021/12/08 02:30:37;;;;;;;55.28;23.55;;;;;;;-1.46;88.99;97592.60;1751661;81;21602;-57
2021/12/08 02:46:47;;;;;;;47.85;18.15;;;;;;;-1.77;88.93;97586.23;1778276;80;21001;-57
2021/12/08 02:49:09;;;;;;;48.48;20.30;;;;;;;-1.84;88.37;97585.96;1775309;80;21563;-57
2021/12/08 02:51:36;;;;;;;43.15;18.07;;;;;;;-1.92;88.36;97583.03;1752503;81;21425;-57
2021/12/08 02:54:03;;;;;;;48.30;18.07;;;;;;;-1.99;88.35;97577.73;1751909;81;22126;-57
2021/12/08 02:56:30;;;;;;;75.40;26.50;;;;;;;-2.08;88.08;97569.70;1752224;81;21013;-57
2021/12/08 02:58:57;;;;;;;48.30;21.30;;;;;;;-2.14;88.18;97573.70;1752030;81;21076;-57
2021/12/08 03:01:24;;;;;;;53.45;22.58;;;;;;;-2.19;88.53;97574.35;1764740;79;22041;-56
2021/12/08 03:03:50;;;;;;;48.17;18.60;;;;;;;-2.18;88.57;97581.80;1772201;80;21023;-57
2021/12/08 03:06:16;;;;;;;53.00;20.55;;;;;;;-2.21;88.56;97578.25;1764909;80;20952;-58
2021/12/08 03:08:42;;;;;;;46.70;18.17;;;;;;;-2.24;88.62;97564.86;1751969;81;21269;-57
2021/12/08 03:11:08;;;;;;;45.50;17.90;;;;;;;-2.25;88.54;97555.78;1773860;80;20889;-57
2021/12/08 03:13:41;;;;;;;43.98;17.52;;;;;;;-2.28;88.31;97561.82;1792573;80;21533;-57
2021/12/08 03:16:12;;;;;;;49.93;20.25;;;;;;;-2.32;88.25;97559.27;1742830;81;21031;-57
2021/12/08 03:18:39;;;;;;;56.70;20.25;;;;;;;-2.39;88.23;97559.01;1771721;80;21072;-57
2021/12/08 03:21:07;;;;;;;51.92;21.15;;;;;;;-2.42;88.31;97561.55;1792781;80;21218;-57
2021/12/08 03:23:49;;;;;;;44.10;23.97;;;;;;;-2.44;88.30;97556.97;1792734;80;21004;-57
2021/12/08 03:26:06;;;;;;;42.83;18.07;;;;;;;-2.47;88.22;97565.34;1787059;80;21545;-57
2021/12/08 03:28:35;;;;;;;54.65;23.42;;;;;;;-2.51;88.22;97563.30;1779050;80;20988;-57
2021/12/08 03:31:14;;;;;;;54.03;23.07;;;;;;;-2.51;88.42;97561.98;1792078;80;21032;-57
2021/12/08 03:33:35;;;;;;;49.38;22.48;;;;;;;-2.54;88.39;97566.38;1790777;80;20966;-57
2021/12/08 03:36:01;;;;;;;53.38;23.42;;;;;;;-2.62;88.17;97562.92;1747727;80;22128;-57
2021/12/08 03:38:28;;;;;;;45.40;20.50;;;;;;;-2.62;88.38;97552.31;1760864;81;21544;-57
2021/12/08 03:40:56;;;;;;;54.75;22.52;;;;;;;-2.66;88.13;97552.41;1761324;81;21019;-57
2021/12/08 03:43:22;;;;;;;46.48;18.60;;;;;;;-2.68;88.68;97548.34;1714859;82;21489;-57
2021/12/08 03:45:49;;;;;;;42.95;17.07;;;;;;;-2.69;88.81;97539.56;1750323;80;20849;-57
2021/12/08 03:48:32;;;;;;;37.93;16.25;;;;;;;-2.65;88.59;97531.52;1756380;81;21037;-57
2021/12/08 03:50:58;;;;;;;45.23;18.80;;;;;;;-2.62;88.58;97530.27;1750613;81;21141;-57
2021/12/08 03:53:24;;;;;;;45.28;17.27;;;;;;;-2.57;88.70;97523.81;1756792;81;21545;-57
2021/12/08 03:55:52;;;;;;;43.65;17.35;;;;;;;-2.53;88.61;97506.98;1769959;80;21020;-57
2021/12/08 03:58:18;;;;;;;49.05;19.15;;;;;;;-2.47;88.71;97512.80;1741244;81;21049;-57
2021/12/08 04:00:45;;;;;;;35.83;13.38;;;;;;;-2.41;88.66;97516.73;1765312;80;21172;-57
2021/12/08 04:03:12;;;;;;;36.23;15.20;;;;;;;-2.39;88.33;97509.91;1792531;80;21438;-57
2021/12/08 04:05:54;;;;;;;47.48;19.37;;;;;;;-2.41;88.14;97502.14;1792652;80;21004;-57
2021/12/08 04:08:20;;;;;;;50.33;18.15;;;;;;;-2.42;87.80;97497.05;1760960;80;21502;-57
2021/12/08 04:10:47;;;;;;;32.42;17.07;;;;;;;-2.42;87.95;97499.19;1744238;81;21010;-57
2021/12/08 04:13:13;;;;;;;36.25;16.25;;;;;;;-2.38;87.75;97502.25;1771017;80;20994;-56
2021/12/08 04:15:39;;;;;;;39.27;16.52;;;;;;;-2.43;87.53;97492.25;1761997;80;21406;-57
2021/12/08 04:18:05;;;;;;;38.17;15.90;;;;;;;-2.41;87.56;97496.83;1756913;80;20947;-58
2021/12/08 04:20:39;;;;;;;46.88;16.55;;;;;;;-2.39;87.30;97504.61;1744160;81;20970;-57
2021/12/08 04:23:08;;;;;;;50.20;18.55;;;;;;;-2.37;87.66;97500.71;1771949;80;21033;-57
2021/12/08 04:25:37;;;;;;;48.35;16.45;;;;;;;-2.35;87.43;97501.30;1792105;80;21684;-57
2021/12/08 04:28:14;;;;;;;48.52;18.55;;;;;;;-2.32;87.24;97502.20;1792370;79;21436;-57
2021/12/08 04:30:45;;;;;;;43.33;19.23;;;;;;;-2.31;87.52;97508.32;1759627;80;21175;-57
2021/12/08 04:33:12;;;;;;;42.95;19.55;;;;;;;-2.25;87.64;97511.98;1774560;80;21052;-57
2021/12/08 04:35:38;;;;;;;41.33;16.27;;;;;;;-2.21;87.66;97513.21;1792469;80;21558;-57
2021/12/08 04:38:09;;;;;;;40.50;16.75;;;;;;;-2.16;87.78;97514.70;1767437;80;21072;-57
2021/12/08 04:40:57;;;;;;;41.70;17.37;;;;;;;-2.12;87.51;97522.56;1743486;81;22357;-57
2021/12/08 04:43:27;;;;;;;28.55;13.43;;;;;;;-2.13;87.51;97516.44;1747586;81;21172;-57
2021/12/08 04:46:51;;;;;;;43.08;18.40;;;;;;;-2.11;87.46;97519.70;1740430;81;21525;-57
2021/12/08 04:53:57;;;;;;;48.05;20.08;;;;;;;-2.17;87.48;97536.97;1764987;80;21595;-57
2021/12/08 05:00:24;;;;;;;48.42;21.45;;;;;;;-2.20;87.29;97539.55;1761092;81;21540;-57
2021/12/08 05:07:02;;;;;;;56.45;23.52;;;;;;;-2.15;87.40;97550.84;1782121;80;25894;-57
2021/12/08 05:09:23;;;;;;;40.50;19.48;;;;;;;-2.22;88.24;97554.87;1788281;80;21004;-57
2021/12/08 05:12:01;;;;;;;36.13;20.02;;;;;;;-2.29;87.70;97548.77;1792852;80;20992;-57
2021/12/08 05:14:35;;;;;;;38.85;17.60;;;;;;;-2.31;87.43;97550.30;1776167;80;21071;-57
2021/12/08 05:17:06;;;;;;;36.03;17.12;;;;;;;-2.31;86.85;97546.33;1763894;80;21518;-57
2021/12/08 05:19:33;;;;;;;36.15;16.87;;;;;;;-2.30;87.15;97549.79;1739380;80;21709;-57
2021/12/08 05:22:04;;;;;;;52.25;21.75;;;;;;;-2.37;87.05;97541.84;1792389;80;21464;-57
2021/12/08 05:24:35;;;;;;;77.97;29.77;;;;;;;-2.45;86.93;97534.11;1730615;81;21067;-57
2021/12/08 05:27:21;;;;;;;47.00;20.92;;;;;;;-2.53;87.08;97524.23;1746926;81;21491;-57
2021/12/08 05:29:54;;;;;;;44.88;20.10;;;;;;;-2.55;87.16;97520.47;1751578;81;21181;-57
2021/12/08 05:32:20;;;;;;;45.38;19.15;;;;;;;-2.60;87.21;97521.59;1760296;81;21351;-57
2021/12/08 05:34:46;;;;;;;36.35;18.50;;;;;;;-2.62;87.39;97513.03;1769148;80;20989;-57
2021/12/08 05:37:14;;;;;;;61.50;27.32;;;;;;;-2.66;87.20;97511.80;1792693;80;21133;-57
2021/12/08 05:39:40;;;;;;;72.08;29.92;;;;;;;-2.70;87.07;97506.63;1747684;80;21020;-57
2021/12/08 05:42:11;;;;;;;72.82;29.35;;;;;;;-2.74;87.18;97496.11;1747635;81;21009;-57
2021/12/08 05:44:37;;;;;;;80.87;37.90;;;;;;;-2.75;87.20;97502.44;1761020;81;21293;-57
2021/12/08 05:47:07;;;;;;;88.03;40.12;;;;;;;-2.78;87.26;97493.07;1786075;80;20846;-57
2021/12/08 05:49:33;;;;;;;79.58;36.05;;;;;;;-2.78;87.31;97483.79;1737006;81;21020;-57
2021/12/08 05:51:59;;;;;;;82.15;34.10;;;;;;;-2.80;87.18;97483.19;1747737;81;21063;-57
2021/12/08 05:54:31;;;;;;;91.15;37.05;;;;;;;-2.82;87.12;97487.05;1747808;81;20889;-57
2021/12/08 05:56:58;;;;;;;93.55;41.30;;;;;;;-2.86;87.06;97487.47;1754230;81;21175;-57
2021/12/08 05:59:24;;;;;;;102.12;42.08;;;;;;;-2.93;86.94;97485.85;1752805;81;21038;-57
2021/12/08 06:02:11;;;;;;;95.40;41.42;;;;;;;-2.96;87.03;97483.11;1746114;81;20979;-57
2021/12/08 06:04:37;;;;;;;83.37;37.20;;;;;;;-2.98;87.04;97488.33;1734820;82;21480;-57
2021/12/08 06:07:03;;;;;;;79.90;36.73;;;;;;;-3.00;87.04;97488.51;1794130;79;21028;-57
2021/12/08 06:09:30;;;;;;;74.77;33.18;;;;;;;-3.05;86.82;97498.94;1775044;80;21414;-57
2021/12/08 06:11:56;;;;;;;71.40;29.07;;;;;;;-3.14;86.66;97501.49;1752281;81;21017;-57
2021/12/08 06:14:25;;;;;;;66.47;31.10;;;;;;;-3.23;86.58;97492.94;1744635;81;21548;-57
2021/12/08 06:16:51;;;;;;;71.10;36.10;;;;;;;-3.29;86.74;97493.74;1758359;80;22012;-57
2021/12/08 06:19:19;;;;;;;71.12;34.98;;;;;;;-3.28;86.85;97494.56;1764632;79;21052;-57
2021/12/08 06:21:47;;;;;;;73.15;36.98;;;;;;;-3.31;86.75;97499.77;1774010;79;21074;-57
2021/12/08 06:24:14;;;;;;;77.53;30.90;;;;;;;-3.37;87.13;97495.78;1749984;79;21161;-57
2021/12/08 06:26:40;;;;;;;72.55;33.02;;;;;;;-3.43;87.24;97494.23;1776669;79;20996;-57
2021/12/08 06:29:07;;;;;;;69.55;32.95;;;;;;;-3.45;86.97;97480.91;1757645;81;21031;-57
2021/12/08 06:31:35;;;;;;;75.57;36.60;;;;;;;-3.52;86.99;97476.11;1741714;79;21047;-57
2021/12/08 06:34:01;;;;;;;98.85;43.78;;;;;;;-3.57;87.08;97465.33;1745308;81;21456;-57
2021/12/08 06:36:41;;;;;;;122.10;52.80;;;;;;;-3.61;86.92;97460.92;1744149;79;21056;-57
2021/12/08 06:39:12;;;;;;;123.95;55.40;;;;;;;-3.63;87.18;97462.16;1743303;79;21097;-57
2021/12/08 06:41:42;;;;;;;110.37;51.83;;;;;;;-3.67;87.02;97463.08;1760627;81;21096;-57
2021/12/08 06:44:16;;;;;;;108.30;49.40;;;;;;;-3.64;87.16;97473.77;1761284;81;22804;-57
2021/12/08 06:46:42;;;;;;;85.65;37.78;;;;;;;-3.63;87.27;97475.39;1755972;79;21462;-57
2021/12/08 06:49:10;;;;;;;99.40;48.17;;;;;;;-3.64;87.20;97469.80;1740746;79;20983;-57
2021/12/08 06:51:47;;;;;;;123.62;49.98;;;;;;;-3.62;87.27;97477.02;1771747;79;21131;-57
2021/12/08 06:54:18;;;;;;;117.50;50.23;;;;;;;-3.62;87.00;97481.00;1737474;79;21087;-57
2021/12/08 06:56:50;;;;;;;90.97;38.85;;;;;;;-3.66;86.87;97478.46;1762551;79;21066;-57
2021/12/08 06:59:20;;;;;;;78.85;37.33;;;;;;;-3.76;86.78;97480.16;1744715;81;21671;-57
2021/12/08 07:04:31;;;;;;;88.07;39.78;;;;;;;-3.90;87.05;97478.02;1758921;79;21065;-57
2021/12/08 07:07:09;;;;;;;73.80;36.65;;;;;;;-3.99;87.52;97476.57;1746768;81;21114;-58
2021/12/08 07:09:54;;;;;;;82.55;34.53;;;;;;;-4.00;87.68;97482.88;1740925;81;21001;-58
2021/12/08 07:12:25;;;;;;;93.80;43.23;;;;;;;-4.00;87.43;97481.56;1752257;79;21648;-57
2021/12/08 07:15:02;;;;;;;102.02;44.38;;;;;;;-4.02;87.56;97470.33;1755628;79;21057;-58
2021/12/08 07:17:30;;;;;;;90.22;39.98;;;;;;;-4.07;88.31;97464.84;1780142;79;21076;-57
2021/12/08 07:20:14;;;;;;;68.92;30.72;;;;;;;-4.05;87.73;97472.88;1753294;81;21080;-57
2021/12/08 07:22:32;;;;;;;95.65;45.03;;;;;;;-3.98;87.65;97472.39;1746791;81;21518;-57
2021/12/08 07:25:00;;;;;;;88.55;39.83;;;;;;;-3.89;87.46;97475.67;1744236;81;21853;-57
2021/12/08 07:27:30;;;;;;;109.12;45.03;;;;;;;-3.86;87.35;97477.09;1744352;79;21066;-57
2021/12/08 07:29:58;;;;;;;67.47;29.20;;;;;;;-3.81;87.58;97469.37;1745023;81;21058;-57
2021/12/08 07:32:28;;;;;;;130.37;55.67;;;;;;;-3.74;87.27;97466.23;1745884;81;21016;-57
2021/12/08 07:34:57;;;;;;;138.47;55.95;;;;;;;-3.73;87.07;97471.31;1746982;81;22753;-58
2021/12/08 07:37:27;;;;;;;125.22;51.53;;;;;;;-3.73;87.00;97462.56;1745979;81;22362;-58
2021/12/08 07:40:02;;;;;;;155.00;62.95;;;;;;;-3.74;86.74;97459.61;1744894;79;21920;-58
2021/12/08 07:42:39;;;;;;;90.55;39.50;;;;;;;-3.80;86.59;97451.95;1744134;79;21213;-57
2021/12/08 07:45:09;;;;;;;88.03;42.05;;;;;;;-3.80;86.50;97460.41;1742178;79;21865;-57
2021/12/08 07:47:35;;;;;;;117.22;51.73;;;;;;;-3.78;86.63;97467.12;1751168;79;21133;-57
2021/12/08 07:50:13;;;;;;;99.47;43.90;;;;;;;-3.70;86.87;97468.25;1746967;79;21113;-58
2021/12/08 07:52:42;;;;;;;98.27;43.70;;;;;;;-3.61;86.93;97468.05;1752344;79;21107;-58
2021/12/08 07:55:13;;;;;;;144.93;62.23;;;;;;;-3.53;86.95;97463.88;1744691;81;21101;-58
2021/12/08 07:57:40;;;;;;;133.63;61.23;;;;;;;-3.51;86.66;97467.95;1746342;81;21012;-57
2021/12/08 08:00:26;;;;;;;126.38;54.08;;;;;;;-3.45;86.62;97471.12;1751603;79;21105;-57
2021/12/08 08:02:52;;;;;;;90.62;40.67;;;;;;;-3.41;86.60;97468.38;1745854;79;21530;-58
2021/12/08 08:05:18;;;;;;;100.27;44.63;;;;;;;-3.32;86.86;97478.27;1745612;79;20900;-57
2021/12/08 08:07:44;;;;;;;133.03;48.60;;;;;;;-3.23;86.76;97481.52;1740469;81;21641;-58
2021/12/08 08:10:14;;;;;;;81.42;38.78;;;;;;;-3.32;86.29;97484.89;1746237;81;21137;-58
2021/12/08 08:12:39;;;;;;;;;;;;;;;-3.28;86.54;97488.74;1749002;79;21585;-58
2021/12/08 08:15:14;;;;;;;87.45;41.05;;;;;;;-3.23;86.52;97487.64;1745953;80;22010;-57
2021/12/08 08:17:44;;;;;;;80.42;38.35;;;;;;;-3.18;86.95;97490.98;1735385;80;21000;-57
2021/12/08 08:20:13;;;;;;;71.77;30.72;;;;;;;-3.13;86.61;97489.35;1750130;79;21140;-58
2021/12/08 08:22:39;;;;;;;60.52;28.23;;;;;;;-3.14;85.73;97490.89;1776679;80;21532;-57
2021/12/08 08:25:07;;;;;;;69.42;30.75;;;;;;;-3.08;85.74;97488.72;1743979;81;20974;-58
2021/12/08 08:27:33;;;;;;;90.50;39.63;;;;;;;-3.00;86.15;97485.86;1744651;80;21230;-58
2021/12/08 08:29:59;;;;;;;93.60;40.65;;;;;;;-2.88;86.45;97485.55;1740229;81;20891;-57
2021/12/08 08:32:32;;;;;;;111.17;46.18;;;;;;;-2.80;86.42;97492.47;1753018;80;21024;-58
2021/12/08 08:35:05;;;;;;;144.45;59.30;;;;;;;-2.74;86.52;97490.30;1763938;80;21510;-58
2021/12/08 08:37:31;;;;;;;156.07;63.40;;;;;;;-2.66;86.56;97485.28;1758621;81;21093;-58
2021/12/08 08:40:00;;;;;;;160.45;63.20;;;;;;;-2.57;86.63;97484.02;1742841;81;21122;-58
2021/12/08 08:42:33;;;;;;;101.27;40.95;;;;;;;-2.46;86.68;97483.91;1750229;79;20990;-57
2021/12/08 08:45:04;;;;;;;110.60;46.95;;;;;;;-2.38;86.62;97487.66;1744541;79;21086;-58
2021/12/08 08:47:38;;;;;;;122.13;53.80;;;;;;;-2.32;86.60;97482.81;1732209;80;20993;-58
2021/12/08 08:50:07;;;;;;;102.40;45.35;;;;;;;-2.23;86.56;97481.55;1744212;80;21078;-57
2021/12/08 08:52:41;;;;;;;97.65;46.13;;;;;;;-2.15;86.58;97481.30;1755104;79;21267;-58
2021/12/08 08:55:12;;;;;;;72.82;34.15;;;;;;;-2.09;86.51;97473.83;1755370;80;21531;-58
2021/12/08 08:57:40;;;;;;;73.57;38.13;;;;;;;-2.00;86.33;97486.34;1758824;80;21046;-58
2021/12/08 09:00:17;;;;;;;55.67;24.47;;;;;;;-1.99;85.97;97482.66;1747514;80;21126;-57
2021/12/08 09:02:43;;;;;;;52.33;30.10;;;;;;;-1.99;85.66;97474.69;1749852;80;21059;-57
2021/12/08 09:05:18;;;;;;;55.60;23.18;;;;;;;-1.98;85.49;97473.66;1738270;80;21033;-58
2021/12/08 09:07:48;;;;;;;39.55;18.15;;;;;;;-2.00;85.27;97467.23;1738142;81;21094;-56
2021/12/08 09:10:25;;;;;;;67.90;28.90;;;;;;;-1.97;85.21;97467.31;1744483;80;21067;-58
2021/12/08 09:13:08;;;;;;;68.02;28.60;;;;;;;-1.96;85.45;97452.23;1734879;81;21589;-57
2021/12/08 09:15:39;;;;;;;76.95;34.18;;;;;;;-1.88;85.37;97455.92;1740613;80;21000;-57
2021/12/08 09:18:19;;;;;;;54.67;26.70;;;;;;;-1.87;84.61;97454.92;1741989;81;21769;-58
2021/12/08 09:21:00;;;;;;;54.55;25.17;;;;;;;-1.84;84.40;97464.59;1742016;81;21623;-57
2021/12/08 09:23:33;;;;;;;44.60;21.33;;;;;;;-1.77;83.62;97457.41;1742946;80;21145;-58
2021/12/08 09:26:04;;;;;;;45.83;19.32;;;;;;;-1.69;84.62;97455.00;1740627;80;21987;-57
2021/12/08 09:28:34;;;;;;;66.92;28.52;;;;;;;-1.71;84.09;97453.05;1746130;80;21130;-58
2021/12/08 09:31:19;;;;;;;44.95;20.77;;;;;;;-1.68;84.21;97459.28;1742684;80;21240;-57
2021/12/08 09:33:52;;;;;;;124.87;48.75;;;;;;;-1.65;84.56;97460.69;1742338;80;21043;-58
2021/12/08 09:36:22;;;;;;;76.87;30.77;;;;;;;-1.57;84.44;97457.77;1761741;80;21053;-57
2021/12/08 09:38:55;;;;;;;90.85;38.75;;;;;;;-1.47;84.75;97457.58;1739675;81;21011;-57
2021/12/08 09:41:36;;;;;;;81.57;37.75;;;;;;;-1.40;84.18;97461.52;1742540;80;21632;-57
2021/12/08 09:44:19;;;;;;;49.53;22.13;;;;;;;-1.31;84.20;97456.75;1746378;80;21810;-57
2021/12/08 09:46:47;;;;;;;41.35;18.67;;;;;;;-1.23;84.21;97457.28;1738930;80;21107;-58
2021/12/08 09:49:17;;;;;;;57.40;25.50;;;;;;;-1.23;84.20;97455.14;1749176;80;21078;-59
2021/12/08 09:51:43;;;;;;;99.97;39.45;;;;;;;-1.20;84.05;97450.22;1747354;79;21231;-58
2021/12/08 09:54:09;;;;;;;66.92;30.62;;;;;;;-1.14;83.43;97449.33;1741713;80;21059;-59
2021/12/08 09:56:35;;;;;;;33.55;16.50;;;;;;;-1.06;84.25;97449.56;1740228;80;22414;-58
2021/12/08 09:59:04;;;;;;;31.07;16.75;;;;;;;-1.06;83.36;97447.42;1746567;80;21658;-59
2021/12/08 10:01:29;;;;;;;;;;;;;;;-1.09;83.00;97447.35;1747096;80;21071;-58
2021/12/08 10:03:56;;;;;;;110.45;38.33;;;;;;;-1.06;83.03;97448.75;1743490;80;20208;-59
2021/12/08 10:06:23;;;;;;;48.42;20.70;;;;;;;-1.00;83.59;97454.02;1750626;80;20910;-59
2021/12/08 10:08:50;;;;;;;56.98;25.70;;;;;;;-0.88;83.39;97442.12;1735815;80;21763;-59
2021/12/08 10:11:16;;;;;;;122.80;53.02;;;;;;;-0.86;83.36;97432.87;1742034;80;21162;-58
2021/12/08 10:13:45;;;;;;;92.40;43.68;;;;;;;-0.80;83.60;97437.84;1743772;80;21124;-58
2021/12/08 10:16:10;;;;;;;45.85;22.55;;;;;;;-0.69;83.53;97434.95;1744558;80;21097;-58
2021/12/08 10:18:36;;;;;;;36.33;17.65;;;;;;;-0.64;82.87;97433.78;1748651;80;21600;-58
2021/12/08 10:21:02;;;;;;;27.87;14.63;;;;;;;-0.66;82.96;97430.53;1756290;79;21527;-57
2021/12/08 10:23:35;;;;;;;68.12;32.58;;;;;;;-0.70;82.95;97429.34;1739773;81;20885;-57
2021/12/08 10:26:08;;;;;;;75.92;36.83;;;;;;;-0.65;82.38;97428.98;1726128;81;21114;-58
2021/12/08 10:28:39;;;;;;;43.28;19.60;;;;;;;-0.52;82.88;97427.18;1743149;80;21090;-58
2021/12/08 10:31:26;;;;;;;41.13;20.43;;;;;;;-0.44;82.84;97422.37;1744900;80;21075;-58
2021/12/08 10:39:34;;;;;;;33.42;16.82;;;;;;;-0.34;81.55;97408.03;1746337;80;21068;-58
2021/12/08 10:42:18;;;;;;;49.83;20.00;;;;;;;-0.21;81.97;97417.68;1741998;80;21109;-57
2021/12/08 10:47:39;;;;;;;60.63;28.17;;;;;;;-0.21;81.13;97402.22;1741678;80;21282;-58
2021/12/08 10:55:43;;;;;;;40.35;21.00;;;;;;;-0.10;80.54;97394.78;1707373;81;21093;-58
2021/12/08 10:58:14;;;;;;;36.80;23.02;;;;;;;-0.09;80.70;97392.41;1714144;80;21102;-58
2021/12/08 11:00:40;;;;;;;31.42;19.90;;;;;;;-0.08;80.93;97395.39;1725223;81;21170;-57
2021/12/08 11:03:14;;;;;;;35.23;21.95;;;;;;;-0.15;78.01;97392.00;1744754;80;20956;-58
2021/12/08 11:05:45;;;;;;;35.38;19.23;;;;;;;-0.08;79.31;97386.07;1752699;80;21474;-58
2021/12/08 11:08:22;;;;;;;234.85;75.35;;;;;;;-0.10;78.64;97388.94;1750867;80;21111;-57
2021/12/08 11:11:04;;;;;;;149.47;59.10;;;;;;;0.03;80.50;97383.14;1748798;80;21103;-57
2021/12/08 11:13:36;;;;;;;73.90;31.07;;;;;;;0.08;80.86;97375.27;1756478;80;21905;-57
2021/12/08 11:16:23;;;;;;;467.83;215.97;;;;;;;0.12;80.87;97369.27;1751132;80;21683;-58
2021/12/08 11:19:03;;;;;;;98.67;52.53;;;;;;;0.17;81.20;97368.56;1744138;80;21043;-57
2021/12/08 11:21:36;;;;;;;43.75;22.13;;;;;;;0.14;79.54;97369.03;1754698;80;21640;-57
2021/12/08 11:24:00;;;;;;;34.98;18.20;;;;;;;0.13;80.93;97364.22;1763296;80;21035;-58
2021/12/08 11:26:38;;;;;;;49.63;25.32;;;;;;;0.05;80.16;97370.40;1755209;80;21051;-57
2021/12/08 11:29:10;;;;;;;84.92;32.10;;;;;;;-0.02;81.07;97363.83;1750909;79;20985;-58
2021/12/08 11:31:54;;;;;;;37.50;19.05;;;;;;;0.05;80.73;97363.73;1757668;80;21035;-58
2021/12/08 11:34:28;;;;;;;34.92;17.05;;;;;;;-0.15;79.77;97364.85;1749360;80;20988;-58
2021/12/08 11:37:01;;;;;;;36.15;15.95;;;;;;;-0.20;79.81;97368.70;1745986;80;21016;-58
2021/12/08 11:39:36;;;;;;;34.25;17.07;;;;;;;-0.13;80.26;97371.28;1751720;80;21131;-58
2021/12/08 11:42:18;;;;;;;30.62;15.80;;;;;;;-0.09;80.05;97365.25;1754538;80;21473;-58
2021/12/08 11:44:46;;;;;;;32.50;15.05;;;;;;;-0.13;80.17;97360.62;1757887;80;21092;-59
2021/12/08 11:47:15;;;;;;;33.50;15.50;;;;;;;-0.08;79.36;97354.11;1751428;80;21141;-58
2021/12/08 11:49:48;;;;;;;;;;;;;;;-0.01;79.80;97348.14;1762197;80;21052;-58
2021/12/08 11:52:19;;;;;;;49.53;22.25;;;;;;;-0.08;78.53;97344.27;1760174;80;21831;-58
2021/12/08 11:55:07;;;;;;;54.98;25.55;;;;;;;-0.01;79.39;97340.14;1746574;80;21029;-59
2021/12/08 11:57:42;;;;;;;58.60;28.12;;;;;;;-0.07;78.53;97341.89;1750012;80;22175;-59
2021/12/08 12:00:27;;;;;;;91.82;40.05;;;;;;;-0.05;79.41;97344.32;1747242;80;21005;-58
2021/12/08 12:03:05;;;;;;;55.08;24.20;;;;;;;-0.07;78.82;97349.07;1749134;80;21207;-58
2021/12/08 12:05:34;;;;;;;51.53;24.70;;;;;;;-0.10;79.13;97348.98;1749575;80;21153;-58
2021/12/08 12:08:07;;;;;;;87.80;30.55;;;;;;;-0.14;79.12;97341.70;1747271;80;21035;-58
2021/12/08 12:10:36;;;;;;;39.10;19.70;;;;;;;-0.19;79.13;97341.55;1765747;80;21103;-58
2021/12/08 12:13:03;;;;;;;36.40;19.25;;;;;;;-0.34;79.15;97340.14;1785020;80;21656;-57